BCS7LK EGNX-LIMC
Flight info
| Callsign | BCS7LK |
|---|---|
| Flight time | N/A |
| Altitude | 31000 |
| Route | SAPCO UY53 DTY UM605 BENSU Q70 BIG UL9 KONAN DCT KOK DCT REMBA DCT DEMUL M624 DIK DCT LIMGO DCT SUTAL DCT GTQ DCT DEVDI DCT BASGO/N0473F290 Z424 AKASU/N0429F190 Z424 RIXUV |
| Aircraft | A306/H-SDE3FGHIRWY/LB1 |
Departure
| Time | N/A |
|---|---|
| Airport | East Midlands Airport (EGNX) |
Arrival
| Time | 2026-05-03 20:50 |
|---|---|
| Airport | Milan Malpensa International Airport (LIMC) |
| Time | Latitude | Longitude | Altitude | Speed | Heading |
|---|---|---|---|---|---|
| 2026-05-03 20:15 | 47.72558 | 7.55633 | 31050 ft | 454 kts | 160° |
| 2026-05-03 20:15 | 47.66765 | 7.59392 | 31048 ft | 455 kts | 160° |
| 2026-05-03 20:16 | 47.60961 | 7.63149 | 31061 ft | 455 kts | 160° |
| 2026-05-03 20:16 | 47.55161 | 7.66895 | 31055 ft | 456 kts | 160° |
| 2026-05-03 20:17 | 47.49336 | 7.70646 | 31053 ft | 456 kts | 160° |
| 2026-05-03 20:17 | 47.43515 | 7.74387 | 31054 ft | 457 kts | 160° |
| 2026-05-03 20:18 | 47.37715 | 7.78105 | 31057 ft | 458 kts | 160° |
| 2026-05-03 20:18 | 47.31869 | 7.81842 | 31057 ft | 458 kts | 160° |
| 2026-05-03 20:19 | 47.25976 | 7.85601 | 31058 ft | 459 kts | 160° |
| 2026-05-03 20:19 | 47.20117 | 7.89329 | 31061 ft | 459 kts | 160° |
| 2026-05-03 20:20 | 47.14286 | 7.93031 | 31061 ft | 460 kts | 160° |
| 2026-05-03 20:20 | 47.08411 | 7.96751 | 31068 ft | 460 kts | 160° |
| 2026-05-03 20:21 | 47.02525 | 8.00468 | 31064 ft | 461 kts | 160° |
| 2026-05-03 20:21 | 46.96631 | 8.04184 | 31067 ft | 461 kts | 160° |
| 2026-05-03 20:22 | 46.90724 | 8.07897 | 31067 ft | 462 kts | 160° |
| 2026-05-03 20:22 | 46.84820 | 8.11602 | 31074 ft | 462 kts | 160° |
| 2026-05-03 20:23 | 46.78894 | 8.15307 | 31076 ft | 463 kts | 160° |
| 2026-05-03 20:23 | 46.72964 | 8.19009 | 31075 ft | 464 kts | 160° |
| 2026-05-03 20:24 | 46.67040 | 8.22697 | 31082 ft | 464 kts | 160° |
| 2026-05-03 20:24 | 46.61099 | 8.26397 | 31068 ft | 464 kts | 160° |
| 2026-05-03 20:25 | 46.55153 | 8.30086 | 31090 ft | 464 kts | 160° |
| 2026-05-03 20:25 | 46.52200 | 8.31912 | 30684 ft | 461 kts | 160° |
| 2026-05-03 20:25 | 46.49237 | 8.33740 | 29750 ft | 463 kts | 160° |
| 2026-05-03 20:25 | 46.46269 | 8.35569 | 28762 ft | 464 kts | 160° |
| 2026-05-03 20:26 | 46.43302 | 8.37395 | 27724 ft | 466 kts | 160° |
| 2026-05-03 20:26 | 46.40291 | 8.39245 | 26603 ft | 469 kts | 160° |
| 2026-05-03 20:26 | 46.37289 | 8.41091 | 25623 ft | 470 kts | 160° |
| 2026-05-03 20:26 | 46.34306 | 8.42921 | 24792 ft | 466 kts | 160° |
| 2026-05-03 20:27 | 46.31317 | 8.44751 | 24022 ft | 462 kts | 160° |
| 2026-05-03 20:27 | 46.28345 | 8.46437 | 23239 ft | 455 kts | 167° |
| 2026-05-03 20:27 | 46.25304 | 8.47367 | 22485 ft | 445 kts | 173° |
| 2026-05-03 20:27 | 46.22245 | 8.48019 | 21658 ft | 440 kts | 175° |
| 2026-05-03 20:28 | 46.19226 | 8.48514 | 20963 ft | 433 kts | 177° |
| 2026-05-03 20:28 | 46.16249 | 8.48924 | 20365 ft | 425 kts | 177° |
| 2026-05-03 20:28 | 46.13333 | 8.49307 | 19758 ft | 420 kts | 176° |
| 2026-05-03 20:28 | 46.10478 | 8.50139 | 19265 ft | 414 kts | 166° |
| 2026-05-03 20:29 | 46.07799 | 8.51418 | 19183 ft | 397 kts | 163° |
| 2026-05-03 20:29 | 46.05248 | 8.52727 | 19089 ft | 382 kts | 163° |
| 2026-05-03 20:29 | 46.02793 | 8.54016 | 18931 ft | 371 kts | 163° |
| 2026-05-03 20:29 | 46.00409 | 8.55277 | 18781 ft | 359 kts | 163° |
| 2026-05-03 20:30 | 45.98103 | 8.56504 | 18613 ft | 349 kts | 163° |
| 2026-05-03 20:30 | 45.95928 | 8.57668 | 18463 ft | 340 kts | 163° |
| 2026-05-03 20:30 | 45.93743 | 8.58839 | 18305 ft | 330 kts | 163° |
| 2026-05-03 20:30 | 45.91606 | 8.59984 | 17992 ft | 325 kts | 163° |
| 2026-05-03 20:31 | 45.89550 | 8.61345 | 17542 ft | 329 kts | 151° |
| 2026-05-03 20:31 | 45.87731 | 8.63254 | 17209 ft | 328 kts | 145° |
| 2026-05-03 20:31 | 45.85964 | 8.65303 | 16824 ft | 326 kts | 144° |
| 2026-05-03 20:31 | 45.84194 | 8.67380 | 16451 ft | 323 kts | 144° |
| 2026-05-03 20:32 | 45.83043 | 8.68725 | 16217 ft | 322 kts | 144° |
| 2026-05-03 20:32 | 45.80742 | 8.71406 | 15735 ft | 318 kts | 144° |
| 2026-05-03 20:32 | 45.79608 | 8.72723 | 15516 ft | 316 kts | 144° |
| 2026-05-03 20:32 | 45.77366 | 8.75317 | 15037 ft | 313 kts | 145° |
| 2026-05-03 20:33 | 45.76179 | 8.76532 | 14827 ft | 309 kts | 151° |
| 2026-05-03 20:33 | 45.73747 | 8.78510 | 14368 ft | 305 kts | 155° |
| 2026-05-03 20:33 | 45.72490 | 8.79473 | 14131 ft | 303 kts | 155° |
| 2026-05-03 20:33 | 45.70633 | 8.80888 | 13777 ft | 301 kts | 155° |
| 2026-05-03 20:34 | 45.68790 | 8.82295 | 13308 ft | 302 kts | 155° |
| 2026-05-03 20:34 | 45.66935 | 8.83713 | 12652 ft | 309 kts | 154° |
| 2026-05-03 20:34 | 45.65056 | 8.85152 | 12269 ft | 306 kts | 154° |
| 2026-05-03 20:34 | 45.63188 | 8.86588 | 12110 ft | 296 kts | 154° |
| 2026-05-03 20:35 | 45.61369 | 8.87727 | 11948 ft | 284 kts | 166° |
| 2026-05-03 20:35 | 45.59485 | 8.88353 | 11822 ft | 273 kts | 171° |
| 2026-05-03 20:35 | 45.57657 | 8.88848 | 11657 ft | 264 kts | 171° |
| 2026-05-03 20:35 | 45.55853 | 8.89324 | 11315 ft | 264 kts | 171° |
| 2026-05-03 20:36 | 45.54046 | 8.89804 | 10968 ft | 263 kts | 171° |
| 2026-05-03 20:36 | 45.52256 | 8.90284 | 10633 ft | 262 kts | 171° |
| 2026-05-03 20:36 | 45.50452 | 8.90770 | 10116 ft | 269 kts | 170° |
| 2026-05-03 20:36 | 45.48597 | 8.91267 | 9724 ft | 269 kts | 170° |
| 2026-05-03 20:37 | 45.46794 | 8.91748 | 9577 ft | 259 kts | 170° |
| 2026-05-03 20:37 | 45.45051 | 8.92215 | 9437 ft | 250 kts | 170° |
| 2026-05-03 20:37 | 45.43363 | 8.92668 | 9180 ft | 246 kts | 170° |
| 2026-05-03 20:37 | 45.41679 | 8.93116 | 8787 ft | 246 kts | 170° |
| 2026-05-03 20:38 | 45.40000 | 8.93557 | 8453 ft | 246 kts | 170° |
| 2026-05-03 20:38 | 45.38317 | 8.93995 | 8113 ft | 245 kts | 170° |
| 2026-05-03 20:38 | 45.36627 | 8.94432 | 7702 ft | 248 kts | 170° |
| 2026-05-03 20:38 | 45.34920 | 8.94866 | 7333 ft | 250 kts | 170° |
| 2026-05-03 20:39 | 45.33210 | 8.95295 | 7006 ft | 249 kts | 170° |
| 2026-05-03 20:39 | 45.31510 | 8.95717 | 6682 ft | 249 kts | 170° |
| 2026-05-03 20:39 | 45.29804 | 8.96135 | 6355 ft | 248 kts | 170° |
| 2026-05-03 20:39 | 45.28106 | 8.96546 | 6049 ft | 247 kts | 170° |
| 2026-05-03 20:40 | 45.26415 | 8.96955 | 5727 ft | 246 kts | 170° |
| 2026-05-03 20:40 | 45.24767 | 8.97350 | 5416 ft | 244 kts | 170° |
| 2026-05-03 20:40 | 45.23094 | 8.97751 | 5129 ft | 243 kts | 170° |
| 2026-05-03 20:40 | 45.21422 | 8.98049 | 4807 ft | 242 kts | 182° |
| 2026-05-03 20:41 | 45.19826 | 8.97372 | 4439 ft | 243 kts | 212° |
| 2026-05-03 20:41 | 45.18680 | 8.95632 | 4087 ft | 246 kts | 242° |
| 2026-05-03 20:41 | 45.18216 | 8.93303 | 3765 ft | 247 kts | 261° |
| 2026-05-03 20:41 | 45.18118 | 8.90887 | 3442 ft | 247 kts | 274° |
| 2026-05-03 20:42 | 45.18585 | 8.88553 | 3122 ft | 248 kts | 299° |
| 2026-05-03 20:42 | 45.19758 | 8.86815 | 3026 ft | 246 kts | 329° |
| 2026-05-03 20:42 | 45.21327 | 8.85829 | 3023 ft | 248 kts | 340° |
| 2026-05-03 20:42 | 45.22965 | 8.85019 | 3017 ft | 250 kts | 341° |
| 2026-05-03 20:43 | 45.24608 | 8.84231 | 3001 ft | 250 kts | 341° |
| 2026-05-03 20:43 | 45.26257 | 8.83440 | 2996 ft | 250 kts | 341° |
| 2026-05-03 20:43 | 45.27848 | 8.82672 | 2996 ft | 250 kts | 341° |
| 2026-05-03 20:43 | 45.29522 | 8.82025 | 2995 ft | 250 kts | 348° |
| 2026-05-03 20:44 | 45.31226 | 8.81540 | 2995 ft | 250 kts | 349° |
| 2026-05-03 20:44 | 45.32920 | 8.81005 | 2992 ft | 249 kts | 342° |
| 2026-05-03 20:44 | 45.34575 | 8.80267 | 2994 ft | 249 kts | 343° |
| 2026-05-03 20:44 | 45.36255 | 8.79649 | 2993 ft | 249 kts | 347° |
| 2026-05-03 20:45 | 45.37946 | 8.79166 | 2993 ft | 249 kts | 349° |
| 2026-05-03 20:45 | 45.39641 | 8.78703 | 2993 ft | 248 kts | 349° |
| 2026-05-03 20:45 | 45.41348 | 8.78247 | 2993 ft | 248 kts | 349° |
| 2026-05-03 20:45 | 45.43020 | 8.77802 | 2987 ft | 244 kts | 349° |
| 2026-05-03 20:46 | 45.44667 | 8.77359 | 3017 ft | 238 kts | 349° |
| 2026-05-03 20:46 | 45.46290 | 8.76916 | 3023 ft | 237 kts | 348° |
| 2026-05-03 20:46 | 45.47878 | 8.76477 | 3046 ft | 234 kts | 348° |
| 2026-05-03 20:46 | 45.49442 | 8.76041 | 3019 ft | 219 kts | 348° |
| 2026-05-03 20:47 | 45.50906 | 8.75634 | 2855 ft | 211 kts | 348° |
| 2026-05-03 20:47 | 45.52316 | 8.75247 | 2561 ft | 202 kts | 348° |
| 2026-05-03 20:47 | 45.53641 | 8.74883 | 2292 ft | 192 kts | 348° |
| 2026-05-03 20:47 | 45.54918 | 8.74531 | 2050 ft | 181 kts | 347° |
| 2026-05-03 20:48 | 45.56099 | 8.74205 | 1834 ft | 166 kts | 347° |
| 2026-05-03 20:48 | 45.57196 | 8.73896 | 1540 ft | 154 kts | 346° |
| 2026-05-03 20:48 | 45.58188 | 8.73619 | 1328 ft | 146 kts | 348° |
| 2026-05-03 20:48 | 45.59193 | 8.73367 | 1164 ft | 146 kts | 348° |
| 2026-05-03 20:49 | 45.60184 | 8.73095 | 998 ft | 144 kts | 347° |
| 2026-05-03 20:49 | 45.61148 | 8.72816 | 800 ft | 140 kts | 347° |
| 2026-05-03 20:49 | 45.62063 | 8.72556 | 725 ft | 122 kts | 349° |
| 2026-05-03 20:49 | 45.62727 | 8.72378 | 721 ft | 67 kts | 349° |
| 2026-05-03 20:50 | 45.63013 | 8.72292 | 726 ft | 27 kts | 336° |
| 2026-05-03 20:50 | 45.63164 | 8.72158 | 725 ft | 24 kts | 326° |
| 2026-05-03 20:50 | 45.63251 | 8.72017 | 725 ft | 9 kts | 255° |
| 2026-05-03 20:50 | 45.63182 | 8.71995 | 725 ft | 17 kts | 170° |
| 2026-05-03 20:51 | 45.63066 | 8.72025 | 723 ft | 18 kts | 167° |
| 2026-05-03 20:51 | 45.62910 | 8.72073 | 723 ft | 26 kts | 168° |
| 2026-05-03 20:51 | 45.62740 | 8.72122 | 723 ft | 24 kts | 169° |
| 2026-05-03 20:51 | 45.62581 | 8.72163 | 725 ft | 22 kts | 169° |
| 2026-05-03 20:52 | 45.62437 | 8.72185 | 725 ft | 21 kts | 177° |
| 2026-05-03 20:52 | 45.62311 | 8.72128 | 724 ft | 18 kts | 186° |
| 2026-05-03 20:52 | 45.62195 | 8.72158 | 723 ft | 16 kts | 169° |
| 2026-05-03 20:52 | 45.62091 | 8.72187 | 722 ft | 15 kts | 169° |
| 2026-05-03 20:53 | 45.61996 | 8.72213 | 722 ft | 13 kts | 169° |
| 2026-05-03 20:53 | 45.61880 | 8.72244 | 726 ft | 19 kts | 169° |
| 2026-05-03 20:53 | 45.61745 | 8.72282 | 724 ft | 22 kts | 168° |
| 2026-05-03 20:53 | 45.61597 | 8.72324 | 726 ft | 21 kts | 169° |
| 2026-05-03 20:54 | 45.61433 | 8.72365 | 722 ft | 31 kts | 180° |
| 2026-05-03 20:54 | 45.61357 | 8.72035 | 726 ft | 0 kts | 261° |